Time;durP1;ratioP1;P1;durP2;ratioP2;P2;SDS_P1;SDS_P2;PMS_P1;PMS_P2;Temp;Humidity;BMP_temperature;BMP_pressure;BME280_temperature;BME280_humidity;BME280_pressure;Samples;Min_cycle;Max_cycle;Signal;HPM_P1;HPM_P2
2022/03/31 00:01:44;;;;;;;8.55;4.63;;;;;;;7.07;65.38;100054.09;5056164;28;20044;-47
2022/03/31 00:04:11;;;;;;;8.30;4.50;;;;;;;7.00;66.05;100048.91;5056041;28;20129;-49
2022/03/31 00:06:39;;;;;;;6.35;4.38;;;;;;;6.98;66.03;100051.06;5054032;28;20038;-49
2022/03/31 00:09:07;;;;;;;7.60;4.82;;;;;;;6.85;66.58;100048.81;5054861;28;20041;-48
2022/03/31 00:11:34;;;;;;;8.10;4.80;;;;;;;6.72;67.09;100043.88;5036591;28;20129;-47
2022/03/31 00:14:02;;;;;;;7.97;4.60;;;;;;;6.81;67.39;100043.13;5039154;28;20033;-49
2022/03/31 00:16:30;;;;;;;7.05;4.50;;;;;;;6.82;66.89;100047.44;5055413;28;20052;-48
2022/03/31 00:18:57;;;;;;;7.32;4.57;;;;;;;6.83;67.02;100040.13;5051853;28;20041;-47
2022/03/31 00:21:26;;;;;;;8.98;4.40;;;;;;;6.78;66.91;100042.81;5055307;28;20057;-48
2022/03/31 00:23:53;;;;;;;8.02;4.93;;;;;;;6.74;67.30;100037.13;5055756;28;20563;-49
2022/03/31 00:26:21;;;;;;;6.07;4.38;;;;;;;6.68;67.70;100035.47;5055678;28;20415;-46
2022/03/31 00:28:49;;;;;;;9.27;5.32;;;;;;;6.62;67.78;100041.94;5053603;28;20128;-49
2022/03/31 00:31:16;;;;;;;7.50;4.93;;;;;;;6.63;68.30;100038.13;5035570;28;20108;-49
2022/03/31 00:33:44;;;;;;;9.43;4.53;;;;;;;6.60;68.06;100038.66;5036483;28;20510;-47
2022/03/31 00:36:13;;;;;;;7.80;5.22;;;;;;;6.56;68.15;100048.38;5035394;28;20045;-49
2022/03/31 00:39:28;;;;;;;8.45;5.60;;;;;;;6.60;67.96;100041.38;5037665;28;20033;-49
2022/03/31 00:41:28;;;;;;;8.57;5.30;;;;;;;6.49;68.23;100047.78;5055589;28;20488;-51
2022/03/31 00:43:56;;;;;;;8.55;5.85;;;;;;;6.39;68.69;100043.13;5054903;28;20063;-49
2022/03/31 00:46:24;;;;;;;10.65;6.22;;;;;;;6.33;68.96;100033.34;5038223;28;20052;-48
2022/03/31 00:48:51;;;;;;;9.48;6.82;;;;;;;6.30;69.79;100037.38;5041347;28;20523;-49
2022/03/31 00:51:20;;;;;;;10.13;6.13;;;;;;;6.35;69.48;100040.13;5055232;28;20431;-53
2022/03/31 00:53:47;;;;;;;9.80;5.80;;;;;;;6.34;69.24;100033.06;5035343;28;20057;-53
2022/03/31 00:56:17;;;;;;;9.35;6.57;;;;;;;6.34;69.85;100027.66;5035725;28;20041;-50
2022/03/31 00:58:45;;;;;;;10.25;7.03;;;;;;;6.37;69.25;100029.88;5047965;28;20041;-49
2022/03/31 01:01:14;;;;;;;10.23;6.63;;;;;;;6.29;70.40;100035.75;5055164;28;20037;-51
2022/03/31 01:03:43;;;;;;;9.85;6.22;;;;;;;6.31;70.56;100030.88;5050827;28;20139;-51
2022/03/31 01:06:14;;;;;;;10.65;6.63;;;;;;;6.31;71.24;100035.50;5035527;28;20128;-53
2022/03/31 01:08:42;;;;;;;12.18;7.03;;;;;;;6.35;71.07;100037.44;5068959;28;20041;-50
2022/03/31 01:11:10;;;;;;;9.38;6.25;;;;;;;6.38;71.06;100031.47;5052061;28;20377;-51
2022/03/31 01:13:38;;;;;;;9.93;6.50;;;;;;;6.35;71.63;100040.13;5054963;28;20044;-53
2022/03/31 01:16:05;;;;;;;10.63;6.60;;;;;;;6.32;71.84;100027.09;5053837;28;20530;-51
2022/03/31 01:18:34;;;;;;;8.73;6.20;;;;;;;6.20;72.69;100026.47;5054908;28;20052;-50
2022/03/31 01:21:01;;;;;;;10.95;6.13;;;;;;;6.13;72.92;100024.00;5036215;28;20041;-49
2022/03/31 01:23:29;;;;;;;11.20;6.55;;;;;;;6.09;73.27;100027.47;5035848;28;20061;-53
2022/03/31 01:25:57;;;;;;;9.60;6.47;;;;;;;6.06;73.47;100015.28;5034928;28;20049;-53
2022/03/31 01:28:24;;;;;;;9.27;6.05;;;;;;;5.94;74.21;100026.28;5034627;28;20412;-50
2022/03/31 01:30:52;;;;;;;9.25;5.95;;;;;;;5.90;74.84;100024.31;5029055;28;20047;-54
2022/03/31 01:33:19;;;;;;;10.57;6.10;;;;;;;5.90;75.15;100019.72;5054223;28;20045;-50
2022/03/31 01:35:47;;;;;;;10.02;6.43;;;;;;;5.94;74.93;100020.88;5053163;28;20487;-49
2022/03/31 01:38:15;;;;;;;10.45;6.43;;;;;;;5.80;75.59;100016.91;5054446;28;20044;-50
2022/03/31 01:40:42;;;;;;;10.55;6.95;;;;;;;5.82;75.78;100013.94;5053958;28;20045;-49
2022/03/31 01:43:10;;;;;;;11.50;6.78;;;;;;;5.75;76.09;100016.88;5054411;28;20040;-47
2022/03/31 01:45:38;;;;;;;8.60;5.35;;;;;;;5.67;76.59;100023.53;5054266;28;20032;-47
2022/03/31 01:48:06;;;;;;;8.85;5.53;;;;;;;5.68;76.89;100025.19;5052170;28;20037;-49
2022/03/31 01:50:34;;;;;;;11.63;6.68;;;;;;;5.73;76.27;100008.19;5050124;28;20068;-47
2022/03/31 01:53:02;;;;;;;11.57;6.90;;;;;;;5.74;76.47;100015.22;5035354;28;20048;-50
2022/03/31 01:55:30;;;;;;;9.90;6.50;;;;;;;5.70;76.71;100014.09;5034134;28;20476;-48
2022/03/31 01:57:57;;;;;;;11.68;6.70;;;;;;;5.55;77.42;100012.88;5051590;28;20454;-48
2022/03/31 02:00:25;;;;;;;9.85;6.43;;;;;;;5.55;77.72;100012.88;5043006;28;20056;-49
2022/03/31 02:02:53;;;;;;;9.35;6.20;;;;;;;5.54;78.01;100005.03;5033842;28;20049;-49
2022/03/31 02:05:21;;;;;;;8.60;5.95;;;;;;;5.54;78.44;100011.25;5032313;28;20061;-47
2022/03/31 02:07:52;;;;;;;12.70;6.18;;;;;;;5.63;78.34;100010.78;5035473;28;20065;-48
2022/03/31 02:10:20;;;;;;;10.40;6.55;;;;;;;5.66;77.99;100010.28;5042739;28;20048;-51
2022/03/31 02:12:48;;;;;;;8.55;5.68;;;;;;;5.74;78.35;99999.00;5044497;28;20041;-50
2022/03/31 02:15:16;;;;;;;9.68;6.32;;;;;;;5.80;77.88;100000.69;5052818;28;20041;-48
2022/03/31 02:17:43;;;;;;;8.60;5.95;;;;;;;5.74;78.43;99993.59;5053458;28;20045;-51
2022/03/31 02:20:11;;;;;;;9.80;6.05;;;;;;;5.54;79.57;100005.84;5053599;28;20037;-46
2022/03/31 02:22:39;;;;;;;11.32;6.95;;;;;;;5.47;80.81;99991.72;5053575;28;20070;-45
2022/03/31 02:25:09;;;;;;;10.57;6.90;;;;;;;5.44;81.67;100000.34;5034444;28;20043;-49
2022/03/31 02:27:37;;;;;;;8.90;6.30;;;;;;;5.19;82.17;99992.75;5033334;28;20485;-46
2022/03/31 02:30:07;;;;;;;10.60;6.75;;;;;;;5.09;83.79;99987.25;5033517;28;20045;-47
2022/03/31 02:32:35;;;;;;;10.45;7.25;;;;;;;5.20;84.37;99982.81;5015689;28;20050;-47
2022/03/31 02:35:04;;;;;;;9.32;6.25;;;;;;;5.36;84.97;99981.88;5049590;28;20377;-46
2022/03/31 02:37:32;;;;;;;8.73;5.82;;;;;;;5.45;85.28;99982.25;5053389;28;20045;-44
2022/03/31 02:39:59;;;;;;;9.30;6.00;;;;;;;5.45;85.64;99969.56;5052161;28;20044;-46
2022/03/31 02:42:27;;;;;;;9.30;6.00;;;;;;;5.44;85.49;99976.03;5053160;28;20037;-45
2022/03/31 02:44:54;;;;;;;9.05;5.88;;;;;;;5.37;86.37;99978.13;5036647;28;20526;-44
2022/03/31 02:47:22;;;;;;;7.57;4.97;;;;;;;5.32;86.33;99964.56;5033040;28;20132;-47
2022/03/31 02:49:50;;;;;;;7.43;5.28;;;;;;;5.10;87.53;99962.72;5033216;28;20124;-46
2022/03/31 02:52:17;;;;;;;9.68;6.05;;;;;;;5.10;88.85;99968.13;5033337;28;20049;-47
2022/03/31 02:57:31;;;;;;;9.63;5.88;;;;;;;4.91;89.62;99972.22;5032060;28;20049;-47
2022/03/31 02:59:59;;;;;;;9.57;5.93;;;;;;;4.95;89.47;99978.72;5033567;28;20045;-47
2022/03/31 03:02:26;;;;;;;8.10;5.35;;;;;;;4.98;89.75;99975.53;5033130;28;20046;-48
2022/03/31 03:04:55;;;;;;;10.05;5.43;;;;;;;5.02;89.56;99968.53;5032988;28;20061;-50
2022/03/31 03:07:22;;;;;;;9.20;5.95;;;;;;;5.00;89.62;99973.38;5033244;28;20041;-48
2022/03/31 03:09:50;;;;;;;9.57;5.93;;;;;;;5.04;90.05;99979.09;5033501;28;20071;-52
2022/03/31 03:12:17;;;;;;;7.88;5.53;;;;;;;4.95;89.44;99975.22;5031703;28;20404;-52
2022/03/31 03:14:45;;;;;;;8.68;5.40;;;;;;;4.91;90.36;99970.31;5032604;28;20052;-48
2022/03/31 03:17:13;;;;;;;8.70;5.05;;;;;;;4.87;90.19;99957.56;5032569;28;20042;-50
2022/03/31 03:19:41;;;;;;;7.10;4.80;;;;;;;4.72;90.11;99949.31;5049395;28;20137;-50
2022/03/31 03:22:08;;;;;;;9.07;5.03;;;;;;;4.60;90.92;99955.63;5039897;28;20052;-51
2022/03/31 03:24:36;;;;;;;6.93;4.78;;;;;;;4.60;92.26;99952.94;5031976;28;20046;-47
2022/03/31 03:27:04;;;;;;;7.30;4.78;;;;;;;4.66;91.36;99937.59;5033073;28;20045;-50
2022/03/31 03:29:32;;;;;;;6.82;4.65;;;;;;;4.73;90.91;99934.72;5043715;28;20049;-50
2022/03/31 03:31:59;;;;;;;6.93;4.55;;;;;;;4.73;91.01;99932.03;5051986;28;20045;-48
2022/03/31 03:34:27;;;;;;;6.65;4.50;;;;;;;4.43;91.46;99928.69;5048972;28;20542;-47
2022/03/31 03:36:55;;;;;;;6.70;4.80;;;;;;;4.38;92.71;99935.91;5031109;28;20053;-52
2022/03/31 03:39:22;;;;;;;6.25;4.35;;;;;;;4.40;92.74;99925.66;5032972;28;20136;-48
2022/03/31 03:41:50;;;;;;;5.85;3.83;;;;;;;4.44;93.20;99926.81;5033008;28;20046;-49
2022/03/31 03:44:17;;;;;;;6.53;4.00;;;;;;;4.41;93.12;99921.94;5047813;28;20493;-48
2022/03/31 03:46:45;;;;;;;5.97;4.22;;;;;;;4.55;93.48;99927.78;5043654;28;20045;-48
2022/03/31 03:49:13;;;;;;;6.53;3.90;;;;;;;4.56;92.42;99924.81;5032632;28;20046;-48
2022/03/31 03:51:40;;;;;;;6.75;4.00;;;;;;;4.42;91.74;99931.63;5032753;28;20081;-48
2022/03/31 03:54:08;;;;;;;6.82;4.00;;;;;;;4.17;93.18;99932.91;5032551;28;20046;-48
2022/03/31 03:56:36;;;;;;;5.93;3.83;;;;;;;4.29;93.48;99948.19;5034046;28;20052;-48
2022/03/31 03:59:04;;;;;;;6.30;3.88;;;;;;;4.25;93.23;99945.97;5055999;28;20052;-48
2022/03/31 04:01:31;;;;;;;5.95;3.78;;;;;;;4.19;92.53;99951.56;5055219;28;20045;-49
2022/03/31 04:03:59;;;;;;;6.55;3.65;;;;;;;4.14;93.80;99944.19;5054626;28;20551;-51
2022/03/31 04:06:27;;;;;;;5.18;3.58;;;;;;;4.23;93.15;99937.34;5051177;28;20049;-48
2022/03/31 04:08:55;;;;;;;5.50;3.38;;;;;;;4.25;92.26;99940.56;5038022;28;20058;-50
2022/03/31 04:11:23;;;;;;;6.85;3.72;;;;;;;4.06;92.49;99947.31;5035545;28;20041;-50
2022/03/31 04:13:50;;;;;;;5.35;3.30;;;;;;;4.02;92.41;99938.09;5035852;28;20061;-49
2022/03/31 04:16:18;;;;;;;4.30;3.05;;;;;;;3.96;92.88;99939.88;5036159;28;20042;-50
2022/03/31 04:18:46;;;;;;;5.47;3.33;;;;;;;4.01;93.41;99950.72;5036861;28;20072;-49
2022/03/31 04:21:14;;;;;;;6.30;3.65;;;;;;;3.96;92.62;99942.56;5035955;28;20041;-48
2022/03/31 04:23:42;;;;;;;4.28;3.15;;;;;;;3.91;92.32;99947.06;5035850;28;20052;-49
2022/03/31 04:26:09;;;;;;;3.28;2.97;;;;;;;3.94;93.35;99951.97;5034327;28;20045;-46
2022/03/31 04:28:37;;;;;;;5.32;3.45;;;;;;;4.00;91.42;99945.59;5042840;28;20048;-54
2022/03/31 04:31:05;;;;;;;6.13;3.10;;;;;;;4.08;91.92;99957.84;5053914;28;20056;-53
2022/03/31 04:33:32;;;;;;;4.38;2.95;;;;;;;4.12;90.90;99951.72;5054981;28;20037;-48
2022/03/31 04:36:00;;;;;;;4.07;2.78;;;;;;;4.05;92.06;99942.97;5055803;28;20132;-48
2022/03/31 04:38:28;;;;;;;4.38;2.53;;;;;;;3.83;92.34;99946.41;5053307;28;20041;-52
2022/03/31 04:40:55;;;;;;;5.50;2.63;;;;;;;3.83;91.77;99945.59;5042089;28;20063;-48
2022/03/31 04:43:23;;;;;;;3.58;2.60;;;;;;;3.75;91.64;99952.22;5053291;28;20496;-49
2022/03/31 04:45:51;;;;;;;3.00;2.70;;;;;;;3.64;92.94;99950.41;5055437;28;20041;-48
2022/03/31 04:48:18;;;;;;;3.63;2.38;;;;;;;3.72;93.31;99954.56;5054025;28;20051;-48
2022/03/31 04:50:46;;;;;;;2.30;2.10;;;;;;;3.79;92.61;99947.97;5041606;28;20046;-48
2022/03/31 04:53:14;;;;;;;2.72;2.10;;;;;;;3.75;91.24;99952.22;5033907;28;20488;-49
2022/03/31 04:55:42;;;;;;;2.45;2.25;;;;;;;3.76;91.71;99953.84;5036019;28;20033;-50
2022/03/31 04:58:09;;;;;;;4.85;2.53;;;;;;;3.80;92.14;99955.00;5035835;28;20044;-46
2022/03/31 05:00:38;;;;;;;3.17;2.28;;;;;;;3.74;91.44;99961.34;5053771;28;20044;-48
2022/03/31 05:03:05;;;;;;;3.83;2.60;;;;;;;3.55;92.47;99958.06;5054648;28;20098;-49
2022/03/31 05:05:33;;;;;;;2.55;2.35;;;;;;;3.57;92.71;99964.03;5054427;28;20083;-48
2022/03/31 05:08:01;;;;;;;3.20;2.30;;;;;;;3.60;93.38;99968.94;5050019;28;20056;-52
2022/03/31 05:10:28;;;;;;;3.83;2.75;;;;;;;3.62;93.29;99966.81;5051809;28;20055;-51
2022/03/31 05:12:56;;;;;;;3.30;2.40;;;;;;;3.38;92.82;99959.91;5041345;28;20045;-46
2022/03/31 05:15:24;;;;;;;2.60;2.40;;;;;;;3.32;93.84;99958.19;5034737;28;20141;-50
2022/03/31 05:17:52;;;;;;;2.53;2.33;;;;;;;3.32;93.69;99953.63;5035480;28;20507;-50
2022/03/31 05:20:21;;;;;;;4.03;2.63;;;;;;;3.28;94.15;99952.47;5036188;28;20060;-48
2022/03/31 05:22:49;;;;;;;3.97;2.50;;;;;;;3.48;94.52;99946.63;5054657;28;20494;-51
2022/03/31 05:25:17;;;;;;;4.10;2.72;;;;;;;3.58;92.97;99962.16;5054200;28;20045;-48
2022/03/31 05:27:46;;;;;;;3.35;2.30;;;;;;;3.42;92.32;99950.31;5046453;28;20039;-49
2022/03/31 05:30:18;;;;;;;2.65;2.45;;;;;;;3.48;93.22;99964.66;4348785;28;10000961;-49
2022/03/31 05:32:46;;;;;;;3.38;2.55;;;;;;;3.48;93.17;99951.22;5051317;28;20518;-50
2022/03/31 05:35:14;;;;;;;2.40;2.20;;;;;;;3.46;92.09;99953.31;5049561;28;20044;-51
2022/03/31 05:37:42;;;;;;;3.13;2.25;;;;;;;3.34;92.38;99951.53;5047694;28;20049;-48
2022/03/31 05:40:11;;;;;;;2.30;2.10;;;;;;;3.35;92.79;99955.84;5032238;28;20045;-50
2022/03/31 05:42:40;;;;;;;2.10;2.00;;;;;;;3.23;92.31;99956.97;5029910;28;20124;-49
2022/03/31 05:45:12;;;;;;;2.10;1.80;;;;;;;3.15;92.97;99961.66;5030786;28;20186;-50
2022/03/31 05:47:42;;;;;;;3.70;1.80;;;;;;;3.09;93.40;99964.50;5029844;28;20045;-47
2022/03/31 05:50:11;;;;;;;2.55;1.60;;;;;;;2.98;93.93;99960.78;5014181;28;20091;-50
2022/03/31 05:52:40;;;;;;;1.60;1.50;;;;;;;2.72;94.46;99962.97;5039711;28;20070;-51
2022/03/31 05:55:09;;;;;;;1.98;1.65;;;;;;;2.89;95.94;99971.13;5049712;28;20036;-50
2022/03/31 05:57:37;;;;;;;1.83;1.73;;;;;;;2.90;94.52;99967.34;5049326;28;20786;-51
2022/03/31 06:00:09;;;;;;;3.40;1.65;;;;;;;2.97;94.65;99961.84;5042080;28;20053;-48
2022/03/31 06:02:40;;;;;;;2.55;1.98;;;;;;;3.11;94.97;99968.59;5030615;28;20124;-51
2022/03/31 06:05:19;;;;;;;2.05;1.95;;;;;;;3.19;93.44;99978.16;5030369;28;20069;-46
2022/03/31 06:07:47;;;;;;;3.13;1.85;;;;;;;3.16;93.32;99965.19;5030219;28;20408;-48
2022/03/31 06:10:15;;;;;;;2.00;1.90;;;;;;;3.27;93.84;99967.00;5050215;28;20048;-50
2022/03/31 06:12:43;;;;;;;1.50;1.40;;;;;;;3.31;92.27;99973.53;5048813;28;20102;-47
2022/03/31 06:15:11;;;;;;;2.95;1.80;;;;;;;3.42;93.27;99969.16;5050198;28;20090;-46
2022/03/31 06:17:44;;;;;;;1.85;1.75;;;;;;;3.44;91.59;99977.81;5043007;28;20507;-49
2022/03/31 06:20:13;;;;;;;1.73;1.63;;;;;;;3.44;91.76;99971.59;5030599;28;20404;-46
2022/03/31 06:22:40;;;;;;;2.22;1.70;;;;;;;3.35;89.87;99968.50;5029566;28;20500;-52
2022/03/31 06:25:14;;;;;;;3.58;1.98;;;;;;;3.27;90.86;99971.56;5030760;28;20103;-49
2022/03/31 06:27:43;;;;;;;2.50;1.70;;;;;;;3.05;90.97;99979.47;5030440;28;20041;-50
2022/03/31 06:30:11;;;;;;;2.55;2.10;;;;;;;2.85;92.18;99972.63;5032766;28;20068;-48
2022/03/31 06:32:39;;;;;;;1.80;1.70;;;;;;;2.64;93.80;99971.38;5032450;28;20065;-49
2022/03/31 06:35:11;;;;;;;1.90;1.80;;;;;;;2.51;94.08;99964.41;5031516;28;20045;-50
2022/03/31 06:37:39;;;;;;;2.47;2.00;;;;;;;2.56;94.23;99967.19;5039552;28;20032;-50
2022/03/31 06:40:09;;;;;;;3.08;1.63;;;;;;;2.68;94.58;99964.50;5041926;28;20128;-48
2022/03/31 06:42:37;;;;;;;2.17;2.03;;;;;;;2.84;92.58;99965.63;5033281;28;20046;-49
2022/03/31 06:45:08;;;;;;;2.63;1.83;;;;;;;2.82;93.61;99965.06;5031858;28;20077;-50
2022/03/31 06:47:55;;;;;;;2.30;1.83;;;;;;;2.90;93.09;99970.03;5033019;28;20480;-44
2022/03/31 06:50:30;;;;;;;3.20;1.73;;;;;;;2.76;92.77;99971.38;5031866;28;20121;-44
2022/03/31 06:52:58;;;;;;;1.92;1.80;;;;;;;2.86;94.31;99971.59;5033165;28;20045;-51
2022/03/31 06:55:28;;;;;;;2.25;2.03;;;;;;;2.99;92.28;99975.88;5033126;28;20045;-48
2022/03/31 06:57:56;;;;;;;1.80;1.70;;;;;;;2.94;92.40;99973.09;5049970;28;20217;-49
2022/03/31 07:00:24;;;;;;;2.95;1.92;;;;;;;2.81;92.32;99968.78;5051664;28;20056;-48
2022/03/31 07:02:51;;;;;;;2.40;2.20;;;;;;;2.70;93.41;99969.66;5035196;28;20045;-48
2022/03/31 07:05:19;;;;;;;2.47;2.05;;;;;;;2.70;94.56;99962.38;5050993;28;20051;-46
2022/03/31 07:07:47;;;;;;;2.10;2.00;;;;;;;2.86;94.57;99974.28;5040938;28;20041;-45
2022/03/31 07:10:15;;;;;;;2.30;2.00;;;;;;;2.96;94.02;99970.97;5033042;28;20064;-47
2022/03/31 07:12:43;;;;;;;2.08;1.88;;;;;;;3.03;93.11;99973.50;5033289;28;20099;-45
2022/03/31 07:15:11;;;;;;;2.35;2.15;;;;;;;2.96;92.90;99971.78;5033512;28;20514;-46
2022/03/31 07:17:38;;;;;;;2.00;1.90;;;;;;;2.69;93.21;99971.50;5035922;28;20060;-45
2022/03/31 07:20:07;;;;;;;2.05;1.95;;;;;;;2.65;94.34;99970.34;5031969;28;20058;-48
2022/03/31 07:22:35;;;;;;;1.98;1.88;;;;;;;2.51;95.78;99969.78;5033034;28;20041;-45
2022/03/31 07:25:03;;;;;;;2.15;1.88;;;;;;;2.74;95.88;99974.31;5031879;28;20052;-46
2022/03/31 07:27:31;;;;;;;2.20;2.00;;;;;;;2.82;94.67;99973.13;5045533;28;20067;-48
2022/03/31 07:29:58;;;;;;;1.88;1.60;;;;;;;2.75;94.81;99969.75;5052437;28;20040;-46
2022/03/31 07:32:26;;;;;;;2.15;2.05;;;;;;;2.77;95.60;99967.63;5052050;28;20049;-48
2022/03/31 07:34:53;;;;;;;2.03;1.92;;;;;;;2.80;94.70;99967.16;5054918;28;20040;-47
2022/03/31 07:37:21;;;;;;;3.05;2.38;;;;;;;2.81;94.31;99970.66;5048343;28;20041;-48
2022/03/31 07:39:49;;;;;;;2.22;1.88;;;;;;;2.74;94.31;99968.09;5047201;28;20056;-47
2022/03/31 07:42:16;;;;;;;5.13;2.25;;;;;;;2.51;95.71;99963.59;5036571;28;20144;-45
2022/03/31 07:44:44;;;;;;;2.65;2.00;;;;;;;2.56;96.01;99967.19;5034814;28;20075;-48
2022/03/31 07:47:12;;;;;;;12.02;2.78;;;;;;;2.67;95.73;99964.72;5052106;28;20172;-45
2022/03/31 07:49:39;;;;;;;4.82;2.20;;;;;;;2.64;95.17;99967.88;5036362;28;20060;-48
2022/03/31 07:52:12;;;;;;;2.30;1.87;;;;;;;2.60;96.55;99964.03;4508742;28;10001256;-50
2022/03/31 07:54:59;;;;;;;3.42;1.73;;;;;;;2.77;96.08;99962.25;5037257;28;20381;-53
2022/03/31 07:57:28;;;;;;;2.00;1.80;;;;;;;2.80;95.67;99955.59;5040027;28;20487;-48
2022/03/31 07:59:56;;;;;;;1.77;1.67;;;;;;;2.91;96.65;99960.94;5041389;28;20144;-49
2022/03/31 08:02:25;;;;;;;1.85;1.73;;;;;;;2.96;94.85;99963.72;5032841;28;20144;-50
2022/03/31 08:04:53;;;;;;;2.88;1.90;;;;;;;2.84;94.94;99970.19;5015035;28;20061;-51
2022/03/31 08:07:21;;;;;;;1.92;1.83;;;;;;;2.76;96.41;99963.28;5036774;28;20044;-50
2022/03/31 08:09:49;;;;;;;2.33;1.90;;;;;;;2.67;95.83;99959.34;5034811;28;20073;-49
2022/03/31 08:12:17;;;;;;;2.00;1.90;;;;;;;2.69;97.20;99955.34;5050859;28;20060;-47
2022/03/31 08:14:45;;;;;;;2.10;2.00;;;;;;;2.88;98.27;99964.09;5051914;28;20098;-45
2022/03/31 08:17:13;;;;;;;2.40;2.20;;;;;;;2.88;96.42;99966.78;5052160;28;20048;-48
2022/03/31 08:19:41;;;;;;;1.83;1.73;;;;;;;2.72;96.45;99959.47;5052472;28;20068;-48
2022/03/31 08:22:08;;;;;;;2.17;1.92;;;;;;;2.63;97.46;99967.06;5052473;28;20063;-50
2022/03/31 08:24:36;;;;;;;2.10;1.90;;;;;;;2.72;98.04;99965.66;5050457;28;20044;-48
2022/03/31 08:27:05;;;;;;;2.95;1.90;;;;;;;2.86;98.34;99960.84;5052495;28;20045;-46
2022/03/31 08:29:33;;;;;;;3.22;1.80;;;;;;;2.87;97.05;99962.47;5050838;28;20141;-49
2022/03/31 08:32:04;;;;;;;3.05;1.67;;;;;;;2.89;97.74;99963.03;5043316;28;20038;-49
2022/03/31 08:34:32;;;;;;;1.77;1.67;;;;;;;2.85;97.25;99964.56;5032268;28;20050;-50
2022/03/31 08:36:59;;;;;;;2.10;1.90;;;;;;;2.88;97.64;99969.47;5033284;28;20041;-47
2022/03/31 08:39:27;;;;;;;1.60;1.50;;;;;;;2.87;97.65;99965.16;5032229;28;20054;-49
2022/03/31 08:41:54;;;;;;;1.38;1.35;;;;;;;2.74;98.38;99957.34;5030991;28;20041;-49
2022/03/31 08:44:23;;;;;;;1.65;1.50;;;;;;;2.85;99.78;99959.19;5032017;28;20042;-47
2022/03/31 08:46:51;;;;;;;1.63;1.60;;;;;;;3.05;99.39;99963.34;5031972;28;20041;-49
2022/03/31 08:49:19;;;;;;;1.70;1.60;;;;;;;3.10;98.63;99961.56;5031282;28;20053;-50
2022/03/31 08:51:47;;;;;;;1.70;1.60;;;;;;;3.04;97.80;99957.13;5030987;28;20049;-44
2022/03/31 08:54:15;;;;;;;1.45;1.35;;;;;;;3.11;98.19;99952.44;5031786;28;20099;-47
2022/03/31 08:56:43;;;;;;;1.58;1.48;;;;;;;3.08;98.23;99954.78;5030861;28;20050;-47
2022/03/31 08:59:30;;;;;;;2.15;1.70;;;;;;;2.99;97.81;99957.03;5031797;28;20087;-49
2022/03/31 09:01:59;;;;;;;1.40;1.30;;;;;;;3.03;98.71;99960.06;5032980;28;20042;-48
2022/03/31 09:04:27;;;;;;;1.52;1.42;;;;;;;3.05;98.75;99958.75;5031698;28;20057;-43
2022/03/31 09:07:02;;;;;;;3.55;1.83;;;;;;;3.01;98.41;99959.47;5031968;28;20048;-48
2022/03/31 09:09:30;;;;;;;8.68;3.20;;;;;;;2.97;100.00;99951.88;5030520;28;20056;-48
2022/03/31 09:11:57;;;;;;;1.52;1.38;;;;;;;3.03;100.00;99965.44;5031424;28;20416;-47
2022/03/31 09:14:44;;;;;;;1.65;1.17;;;;;;;3.08;99.51;99966.38;5032502;28;20041;-49
2022/03/31 09:17:13;;;;;;;1.70;1.50;;;;;;;3.20;99.83;99960.94;5031338;28;20087;-46
2022/03/31 09:19:43;;;;;;;1.80;1.70;;;;;;;3.24;99.42;99966.66;5030042;28;20046;-48
2022/03/31 09:22:10;;;;;;;1.50;1.40;;;;;;;3.21;98.18;99973.34;5031471;28;20045;-47
2022/03/31 09:24:39;;;;;;;2.03;1.65;;;;;;;3.18;98.38;99969.25;5031411;28;20132;-47
2022/03/31 09:27:07;;;;;;;1.55;1.50;;;;;;;3.24;98.89;99967.47;5000569;28;20037;-48
2022/03/31 09:29:35;;;;;;;1.73;1.42;;;;;;;3.24;97.39;99982.81;5033175;28;20046;-46
2022/03/31 09:32:21;;;;;;;1.50;1.40;;;;;;;3.24;97.24;99983.63;5034993;28;20049;-49
2022/03/31 09:34:48;;;;;;;2.00;1.83;;;;;;;3.08;98.29;99985.22;5034574;28;20042;-47
2022/03/31 09:37:16;;;;;;;2.10;1.75;;;;;;;3.11;99.25;99983.91;5016723;28;20049;-45
2022/03/31 09:39:54;;;;;;;1.80;1.70;;;;;;;3.16;100.00;99981.31;5035579;28;20037;-45
2022/03/31 09:42:22;;;;;;;1.98;1.88;;;;;;;3.23;99.73;99982.00;5033505;28;20056;-50
2022/03/31 09:45:00;;;;;;;2.20;2.00;;;;;;;3.35;100.00;99979.25;5033620;28;20085;-49
2022/03/31 09:47:28;;;;;;;2.20;2.00;;;;;;;3.32;98.92;99980.56;5049561;28;20041;-43
2022/03/31 09:49:56;;;;;;;2.03;1.92;;;;;;;3.37;99.25;99963.69;5054256;28;20052;-49
2022/03/31 09:52:24;;;;;;;1.90;1.80;;;;;;;3.35;99.21;99977.38;5052412;28;20044;-48
2022/03/31 09:54:52;;;;;;;3.15;2.20;;;;;;;3.36;99.60;99976.31;5052488;28;20045;-48
2022/03/31 09:57:21;;;;;;;2.55;1.65;;;;;;;3.28;98.76;99968.63;5054007;28;20045;-46
2022/03/31 09:59:54;;;;;;;2.15;2.05;;;;;;;3.15;98.75;99966.22;5051642;28;20045;-48
2022/03/31 10:02:22;;;;;;;1.70;1.60;;;;;;;3.11;99.83;99967.78;5050477;28;20041;-46
2022/03/31 10:04:50;;;;;;;2.67;1.92;;;;;;;3.19;100.00;99968.19;5050149;28;20096;-49
2022/03/31 10:07:18;;;;;;;1.90;1.80;;;;;;;3.19;100.00;99959.31;5054608;28;20389;-47
2022/03/31 10:09:45;;;;;;;1.90;1.75;;;;;;;3.25;100.00;99961.03;5052185;28;20051;-47
2022/03/31 10:12:35;;;;;;;2.00;1.90;;;;;;;3.30;98.91;99966.50;5039378;28;20048;-45
2022/03/31 10:15:09;;;;;;;3.30;2.58;;;;;;;3.31;99.78;99968.13;5016018;28;20049;-44
2022/03/31 10:17:37;;;;;;;2.20;2.00;;;;;;;3.24;99.58;99967.47;5033510;28;20045;-44
2022/03/31 10:20:10;;;;;;;2.83;2.20;;;;;;;3.25;100.00;99966.44;5033899;28;20076;-47
2022/03/31 10:25:34;;;;;;;;;;;;;;;3.45;99.64;99963.28;5029614;28;20045;-47
2022/03/31 10:28:21;;;;;;;2.20;2.00;;;;;;;3.42;99.14;99964.59;5030427;28;19924;-48
2022/03/31 10:31:02;;;;;;;2.50;1.90;;;;;;;3.35;98.04;99968.50;5040207;28;20471;-48
2022/03/31 10:33:37;;;;;;;2.17;2.00;;;;;;;3.37;98.61;99967.19;5031027;28;20144;-46
2022/03/31 10:36:12;;;;;;;2.27;1.90;;;;;;;3.26;98.37;99954.59;5030278;28;20124;-49
2022/03/31 10:38:55;;;;;;;2.60;2.30;;;;;;;3.27;100.00;99950.84;5047880;28;20049;-50
2022/03/31 10:41:38;;;;;;;3.15;2.70;;;;;;;3.37;100.00;99947.53;5028618;28;20077;-46
2022/03/31 10:44:12;;;;;;;2.28;2.08;;;;;;;3.48;100.00;99951.22;5029977;28;20046;-49
2022/03/31 10:46:44;;;;;;;3.25;2.20;;;;;;;3.55;100.00;99954.56;5029887;28;20048;-47
2022/03/31 10:49:17;;;;;;;1.98;1.88;;;;;;;3.60;100.00;99958.16;5012369;28;20100;-49
2022/03/31 10:51:45;;;;;;;3.65;2.17;;;;;;;3.61;98.93;99946.34;5028067;28;20494;-45
2022/03/31 10:54:31;;;;;;;2.58;2.20;;;;;;;3.63;99.19;99954.16;5029493;28;20041;-51
2022/03/31 10:57:12;;;;;;;1.83;1.73;;;;;;;3.70;99.61;99948.63;5045277;28;20051;-47
2022/03/31 10:59:41;;;;;;;2.10;2.00;;;;;;;3.80;98.98;99949.63;5029547;28;20084;-49
2022/03/31 11:02:12;;;;;;;2.28;2.08;;;;;;;3.79;97.02;99958.75;5028861;28;20634;-46
2022/03/31 11:04:44;;;;;;;2.90;2.40;;;;;;;3.72;97.50;99952.69;5029693;28;20488;-48
2022/03/31 11:07:24;;;;;;;3.40;2.00;;;;;;;3.72;98.21;99949.19;5030538;28;20103;-47
2022/03/31 11:10:13;;;;;;;2.10;2.00;;;;;;;3.67;98.27;99943.72;5033563;28;20041;-47
2022/03/31 11:12:42;;;;;;;2.70;2.33;;;;;;;3.69;99.58;99947.81;5034053;28;20041;-44
2022/03/31 11:15:16;;;;;;;2.35;2.13;;;;;;;3.77;99.46;99943.88;5033638;28;20052;-46
2022/03/31 11:17:44;;;;;;;2.78;2.03;;;;;;;3.82;99.18;99947.50;5032561;28;20416;-43
2022/03/31 11:20:24;;;;;;;2.80;2.50;;;;;;;3.83;98.25;99953.69;5033689;28;20137;-49
2022/03/31 11:22:54;;;;;;;2.75;2.10;;;;;;;3.76;98.06;99953.03;5035300;28;20041;-47
2022/03/31 11:25:23;;;;;;;2.40;2.20;;;;;;;3.76;98.49;99953.03;5037694;28;20448;-47
2022/03/31 11:27:52;;;;;;;2.60;2.40;;;;;;;3.77;98.93;99955.47;5055245;28;20119;-47
2022/03/31 11:30:22;;;;;;;4.63;2.30;;;;;;;3.77;99.09;99935.78;5029057;28;20072;-47
2022/03/31 11:32:56;;;;;;;4.13;2.30;;;;;;;3.68;98.15;99930.03;5037802;28;20037;-47
2022/03/31 11:35:26;;;;;;;2.40;2.20;;;;;;;3.60;99.01;99930.41;5035529;28;20140;-46
2022/03/31 11:38:02;;;;;;;3.13;2.20;;;;;;;3.67;100.00;99939.16;5036328;28;20120;-48
2022/03/31 11:40:34;;;;;;;;;;;;;;;3.72;99.67;99931.13;5037030;28;20042;-45
2022/03/31 11:43:08;;;;;;;3.38;2.40;;;;;;;3.65;100.00;99937.75;5037311;28;20391;-48
2022/03/31 11:45:43;;;;;;;2.60;2.40;;;;;;;3.69;100.00;99931.63;5037978;28;20087;-50
2022/03/31 11:48:12;;;;;;;2.60;2.40;;;;;;;3.71;100.00;99929.53;5035955;28;20050;-46
2022/03/31 11:50:50;;;;;;;3.60;2.30;;;;;;;3.70;100.00;99927.88;5036466;28;20038;-48
2022/03/31 11:53:34;;;;;;;2.60;2.35;;;;;;;3.68;100.00;99919.25;5038130;28;20548;-48
2022/03/31 11:56:05;;;;;;;2.60;2.22;;;;;;;3.75;100.00;99925.28;5036115;28;20393;-47